sensor_id;sensor_type;location;lat;lon;timestamp;P1;durP1;ratioP1;P2;durP2;ratioP2
22097;SDS011;11215;51.938;8.464;2023-07-20T00:01:59;3.97;;;3.40;;
22097;SDS011;11215;51.938;8.464;2023-07-20T00:04:24;4.40;;;3.87;;
22097;SDS011;11215;51.938;8.464;2023-07-20T00:06:50;6.53;;;4.03;;
22097;SDS011;11215;51.938;8.464;2023-07-20T00:09:16;4.80;;;3.80;;
22097;SDS011;11215;51.938;8.464;2023-07-20T00:11:48;10.47;;;4.10;;
22097;SDS011;11215;51.938;8.464;2023-07-20T00:14:15;5.10;;;3.73;;
22097;SDS011;11215;51.938;8.464;2023-07-20T00:16:41;4.37;;;4.07;;
22097;SDS011;11215;51.938;8.464;2023-07-20T00:19:07;4.40;;;4.00;;
22097;SDS011;11215;51.938;8.464;2023-07-20T00:21:35;4.13;;;3.83;;
22097;SDS011;11215;51.938;8.464;2023-07-20T00:24:02;4.50;;;4.10;;
22097;SDS011;11215;51.938;8.464;2023-07-20T00:26:28;5.27;;;4.47;;
22097;SDS011;11215;51.938;8.464;2023-07-20T00:28:54;4.10;;;3.53;;
22097;SDS011;11215;51.938;8.464;2023-07-20T00:31:19;4.97;;;4.47;;
22097;SDS011;11215;51.938;8.464;2023-07-20T00:33:45;4.77;;;4.37;;
22097;SDS011;11215;51.938;8.464;2023-07-20T00:36:11;4.57;;;4.17;;
22097;SDS011;11215;51.938;8.464;2023-07-20T00:38:36;4.17;;;3.77;;
22097;SDS011;11215;51.938;8.464;2023-07-20T00:41:02;4.50;;;4.10;;
22097;SDS011;11215;51.938;8.464;2023-07-20T00:43:28;4.17;;;3.80;;
22097;SDS011;11215;51.938;8.464;2023-07-20T00:45:53;5.00;;;4.33;;
22097;SDS011;11215;51.938;8.464;2023-07-20T00:48:20;4.70;;;4.30;;
22097;SDS011;11215;51.938;8.464;2023-07-20T00:50:45;4.10;;;3.70;;
22097;SDS011;11215;51.938;8.464;2023-07-20T00:53:13;3.97;;;3.50;;
22097;SDS011;11215;51.938;8.464;2023-07-20T00:55:39;7.03;;;4.70;;
22097;SDS011;11215;51.938;8.464;2023-07-20T00:58:05;6.47;;;4.80;;
22097;SDS011;11215;51.938;8.464;2023-07-20T01:00:30;6.17;;;4.67;;
22097;SDS011;11215;51.938;8.464;2023-07-20T01:02:56;5.67;;;4.57;;
22097;SDS011;11215;51.938;8.464;2023-07-20T01:05:22;5.47;;;4.27;;
22097;SDS011;11215;51.938;8.464;2023-07-20T01:08:10;4.67;;;4.23;;
22097;SDS011;11215;51.938;8.464;2023-07-20T01:10:48;5.67;;;4.90;;
22097;SDS011;11215;51.938;8.464;2023-07-20T01:13:22;5.97;;;4.70;;
22097;SDS011;11215;51.938;8.464;2023-07-20T01:15:49;7.10;;;5.23;;
22097;SDS011;11215;51.938;8.464;2023-07-20T01:18:16;4.57;;;4.17;;
22097;SDS011;11215;51.938;8.464;2023-07-20T01:20:42;4.87;;;4.33;;
22097;SDS011;11215;51.938;8.464;2023-07-20T01:26:23;4.30;;;3.87;;
22097;SDS011;11215;51.938;8.464;2023-07-20T01:31:28;5.40;;;4.80;;
22097;SDS011;11215;51.938;8.464;2023-07-20T01:33:57;5.63;;;4.80;;
22097;SDS011;11215;51.938;8.464;2023-07-20T01:36:26;6.27;;;5.37;;
22097;SDS011;11215;51.938;8.464;2023-07-20T01:38:54;4.93;;;4.43;;
22097;SDS011;11215;51.938;8.464;2023-07-20T01:41:21;5.20;;;4.50;;
22097;SDS011;11215;51.938;8.464;2023-07-20T01:43:48;5.17;;;4.67;;
22097;SDS011;11215;51.938;8.464;2023-07-20T01:46:13;5.67;;;5.17;;
22097;SDS011;11215;51.938;8.464;2023-07-20T01:48:39;5.87;;;5.20;;
22097;SDS011;11215;51.938;8.464;2023-07-20T01:51:05;6.27;;;5.70;;
22097;SDS011;11215;51.938;8.464;2023-07-20T01:53:30;6.73;;;5.20;;
22097;SDS011;11215;51.938;8.464;2023-07-20T01:55:56;7.40;;;5.63;;
22097;SDS011;11215;51.938;8.464;2023-07-20T01:58:22;5.33;;;4.73;;
22097;SDS011;11215;51.938;8.464;2023-07-20T02:00:48;5.53;;;5.10;;
22097;SDS011;11215;51.938;8.464;2023-07-20T02:03:14;7.87;;;6.53;;
22097;SDS011;11215;51.938;8.464;2023-07-20T02:05:43;11.13;;;7.47;;
22097;SDS011;11215;51.938;8.464;2023-07-20T02:08:08;10.10;;;8.30;;
22097;SDS011;11215;51.938;8.464;2023-07-20T02:10:34;15.13;;;11.57;;
22097;SDS011;11215;51.938;8.464;2023-07-20T02:13:00;16.73;;;10.47;;
22097;SDS011;11215;51.938;8.464;2023-07-20T02:15:26;14.87;;;10.17;;
22097;SDS011;11215;51.938;8.464;2023-07-20T02:17:52;11.87;;;8.87;;
22097;SDS011;11215;51.938;8.464;2023-07-20T02:20:18;11.67;;;9.93;;
22097;SDS011;11215;51.938;8.464;2023-07-20T02:22:44;13.47;;;11.77;;
22097;SDS011;11215;51.938;8.464;2023-07-20T02:25:10;13.67;;;11.40;;
22097;SDS011;11215;51.938;8.464;2023-07-20T02:27:36;15.63;;;11.87;;
22097;SDS011;11215;51.938;8.464;2023-07-20T02:30:02;18.17;;;13.43;;
22097;SDS011;11215;51.938;8.464;2023-07-20T02:32:29;18.17;;;11.73;;
22097;SDS011;11215;51.938;8.464;2023-07-20T02:34:56;20.03;;;14.50;;
22097;SDS011;11215;51.938;8.464;2023-07-20T02:37:22;22.47;;;15.70;;
22097;SDS011;11215;51.938;8.464;2023-07-20T02:39:48;20.50;;;15.67;;
22097;SDS011;11215;51.938;8.464;2023-07-20T02:42:14;25.20;;;16.27;;
22097;SDS011;11215;51.938;8.464;2023-07-20T02:44:39;25.57;;;16.60;;
22097;SDS011;11215;51.938;8.464;2023-07-20T02:47:05;22.00;;;16.10;;
22097;SDS011;11215;51.938;8.464;2023-07-20T02:49:31;23.57;;;16.73;;
22097;SDS011;11215;51.938;8.464;2023-07-20T02:51:56;21.00;;;16.13;;
22097;SDS011;11215;51.938;8.464;2023-07-20T02:54:22;21.47;;;15.90;;
22097;SDS011;11215;51.938;8.464;2023-07-20T02:56:48;19.37;;;13.13;;
22097;SDS011;11215;51.938;8.464;2023-07-20T02:59:13;21.20;;;15.37;;
22097;SDS011;11215;51.938;8.464;2023-07-20T03:01:39;21.50;;;15.77;;
22097;SDS011;11215;51.938;8.464;2023-07-20T03:04:07;22.67;;;14.80;;
22097;SDS011;11215;51.938;8.464;2023-07-20T03:06:35;20.87;;;14.60;;
22097;SDS011;11215;51.938;8.464;2023-07-20T03:09:01;23.67;;;15.37;;
22097;SDS011;11215;51.938;8.464;2023-07-20T03:11:28;17.37;;;13.97;;
22097;SDS011;11215;51.938;8.464;2023-07-20T03:13:54;19.37;;;12.57;;
22097;SDS011;11215;51.938;8.464;2023-07-20T03:16:20;16.50;;;12.57;;
22097;SDS011;11215;51.938;8.464;2023-07-20T03:18:46;17.50;;;12.30;;
22097;SDS011;11215;51.938;8.464;2023-07-20T03:21:12;16.67;;;12.00;;
22097;SDS011;11215;51.938;8.464;2023-07-20T03:23:38;16.60;;;12.13;;
22097;SDS011;11215;51.938;8.464;2023-07-20T03:26:04;13.50;;;10.93;;
22097;SDS011;11215;51.938;8.464;2023-07-20T03:28:30;18.20;;;11.27;;
22097;SDS011;11215;51.938;8.464;2023-07-20T03:30:56;18.43;;;11.17;;
22097;SDS011;11215;51.938;8.464;2023-07-20T03:33:25;11.73;;;10.23;;
22097;SDS011;11215;51.938;8.464;2023-07-20T03:35:53;14.70;;;9.73;;
22097;SDS011;11215;51.938;8.464;2023-07-20T03:38:19;14.07;;;10.07;;
22097;SDS011;11215;51.938;8.464;2023-07-20T03:40:55;14.93;;;10.13;;
22097;SDS011;11215;51.938;8.464;2023-07-20T03:43:22;16.73;;;10.63;;
22097;SDS011;11215;51.938;8.464;2023-07-20T03:45:49;11.63;;;9.07;;
22097;SDS011;11215;51.938;8.464;2023-07-20T03:48:16;17.03;;;8.87;;
22097;SDS011;11215;51.938;8.464;2023-07-20T03:50:51;10.00;;;8.20;;
22097;SDS011;11215;51.938;8.464;2023-07-20T03:53:18;9.77;;;7.57;;
22097;SDS011;11215;51.938;8.464;2023-07-20T03:55:45;11.43;;;7.93;;
22097;SDS011;11215;51.938;8.464;2023-07-20T03:58:15;9.40;;;7.70;;
22097;SDS011;11215;51.938;8.464;2023-07-20T04:00:47;10.13;;;7.83;;
22097;SDS011;11215;51.938;8.464;2023-07-20T04:03:15;9.00;;;8.10;;
22097;SDS011;11215;51.938;8.464;2023-07-20T04:05:41;10.80;;;8.27;;
22097;SDS011;11215;51.938;8.464;2023-07-20T04:08:08;12.03;;;8.47;;
22097;SDS011;11215;51.938;8.464;2023-07-20T04:10:34;12.40;;;8.53;;
22097;SDS011;11215;51.938;8.464;2023-07-20T04:13:00;10.13;;;7.80;;
22097;SDS011;11215;51.938;8.464;2023-07-20T04:15:26;8.53;;;7.40;;
22097;SDS011;11215;51.938;8.464;2023-07-20T04:17:51;9.83;;;8.33;;
22097;SDS011;11215;51.938;8.464;2023-07-20T04:20:17;14.27;;;7.40;;
22097;SDS011;11215;51.938;8.464;2023-07-20T04:22:43;6.80;;;6.10;;
22097;SDS011;11215;51.938;8.464;2023-07-20T04:25:09;5.80;;;5.20;;
22097;SDS011;11215;51.938;8.464;2023-07-20T04:27:35;8.57;;;5.57;;
22097;SDS011;11215;51.938;8.464;2023-07-20T04:30:01;7.00;;;5.50;;
22097;SDS011;11215;51.938;8.464;2023-07-20T04:32:28;4.93;;;4.17;;
22097;SDS011;11215;51.938;8.464;2023-07-20T04:34:54;4.53;;;3.40;;
22097;SDS011;11215;51.938;8.464;2023-07-20T04:37:19;3.47;;;3.07;;
22097;SDS011;11215;51.938;8.464;2023-07-20T04:39:45;3.60;;;2.90;;
22097;SDS011;11215;51.938;8.464;2023-07-20T04:42:11;2.93;;;2.67;;
22097;SDS011;11215;51.938;8.464;2023-07-20T04:44:36;2.77;;;2.50;;
22097;SDS011;11215;51.938;8.464;2023-07-20T04:47:02;3.40;;;2.50;;
22097;SDS011;11215;51.938;8.464;2023-07-20T04:49:28;4.87;;;3.10;;
22097;SDS011;11215;51.938;8.464;2023-07-20T04:51:53;3.27;;;2.80;;
22097;SDS011;11215;51.938;8.464;2023-07-20T04:54:19;3.33;;;3.00;;
22097;SDS011;11215;51.938;8.464;2023-07-20T04:56:45;2.87;;;2.67;;
22097;SDS011;11215;51.938;8.464;2023-07-20T04:59:11;3.63;;;2.63;;
22097;SDS011;11215;51.938;8.464;2023-07-20T05:01:36;3.57;;;3.27;;
22097;SDS011;11215;51.938;8.464;2023-07-20T05:04:02;3.30;;;3.00;;
22097;SDS011;11215;51.938;8.464;2023-07-20T05:06:27;3.27;;;2.80;;
22097;SDS011;11215;51.938;8.464;2023-07-20T05:08:53;3.23;;;2.93;;
22097;SDS011;11215;51.938;8.464;2023-07-20T05:11:19;3.30;;;3.00;;
22097;SDS011;11215;51.938;8.464;2023-07-20T05:13:45;3.77;;;3.47;;
22097;SDS011;11215;51.938;8.464;2023-07-20T05:16:10;4.10;;;3.70;;
22097;SDS011;11215;51.938;8.464;2023-07-20T05:18:36;3.53;;;3.23;;
22097;SDS011;11215;51.938;8.464;2023-07-20T05:21:02;3.70;;;3.40;;
22097;SDS011;11215;51.938;8.464;2023-07-20T05:23:27;3.70;;;3.40;;
22097;SDS011;11215;51.938;8.464;2023-07-20T05:25:54;3.53;;;3.23;;
22097;SDS011;11215;51.938;8.464;2023-07-20T05:28:21;3.80;;;3.50;;
22097;SDS011;11215;51.938;8.464;2023-07-20T05:30:47;3.43;;;3.13;;
22097;SDS011;11215;51.938;8.464;2023-07-20T05:33:13;4.33;;;3.83;;
22097;SDS011;11215;51.938;8.464;2023-07-20T05:35:38;3.57;;;3.27;;
22097;SDS011;11215;51.938;8.464;2023-07-20T05:38:04;4.77;;;3.90;;
22097;SDS011;11215;51.938;8.464;2023-07-20T05:40:31;4.43;;;3.80;;
22097;SDS011;11215;51.938;8.464;2023-07-20T05:42:57;4.47;;;3.63;;
22097;SDS011;11215;51.938;8.464;2023-07-20T05:45:23;5.00;;;3.93;;
22097;SDS011;11215;51.938;8.464;2023-07-20T05:47:49;4.00;;;3.60;;
22097;SDS011;11215;51.938;8.464;2023-07-20T05:50:15;5.43;;;3.53;;
22097;SDS011;11215;51.938;8.464;2023-07-20T05:52:41;2.50;;;1.87;;
22097;SDS011;11215;51.938;8.464;2023-07-20T05:55:06;3.50;;;2.87;;
22097;SDS011;11215;51.938;8.464;2023-07-20T05:57:35;3.33;;;3.03;;
22097;SDS011;11215;51.938;8.464;2023-07-20T06:00:01;3.67;;;2.80;;
22097;SDS011;11215;51.938;8.464;2023-07-20T06:02:33;3.27;;;2.93;;
22097;SDS011;11215;51.938;8.464;2023-07-20T06:05:05;2.50;;;2.30;;
22097;SDS011;11215;51.938;8.464;2023-07-20T06:07:34;3.43;;;2.20;;
22097;SDS011;11215;51.938;8.464;2023-07-20T06:10:04;2.70;;;2.50;;
22097;SDS011;11215;51.938;8.464;2023-07-20T06:12:39;4.60;;;2.57;;
22097;SDS011;11215;51.938;8.464;2023-07-20T06:15:06;3.10;;;2.17;;
22097;SDS011;11215;51.938;8.464;2023-07-20T06:17:53;2.43;;;2.17;;
22097;SDS011;11215;51.938;8.464;2023-07-20T06:20:23;2.57;;;2.37;;
22097;SDS011;11215;51.938;8.464;2023-07-20T06:22:52;2.77;;;2.53;;
22097;SDS011;11215;51.938;8.464;2023-07-20T06:25:20;2.17;;;1.97;;
22097;SDS011;11215;51.938;8.464;2023-07-20T06:27:46;2.30;;;2.10;;
22097;SDS011;11215;51.938;8.464;2023-07-20T06:30:11;3.00;;;1.80;;
22097;SDS011;11215;51.938;8.464;2023-07-20T06:32:38;2.37;;;2.17;;
22097;SDS011;11215;51.938;8.464;2023-07-20T06:35:04;2.30;;;2.10;;
22097;SDS011;11215;51.938;8.464;2023-07-20T06:37:36;3.93;;;2.27;;
22097;SDS011;11215;51.938;8.464;2023-07-20T06:40:02;3.67;;;2.13;;
22097;SDS011;11215;51.938;8.464;2023-07-20T06:42:29;3.47;;;2.07;;
22097;SDS011;11215;51.938;8.464;2023-07-20T06:45:05;1.70;;;1.60;;
22097;SDS011;11215;51.938;8.464;2023-07-20T06:47:34;1.17;;;1.17;;
22097;SDS011;11215;51.938;8.464;2023-07-20T06:49:59;1.90;;;1.80;;
22097;SDS011;11215;51.938;8.464;2023-07-20T06:52:28;1.70;;;1.57;;
22097;SDS011;11215;51.938;8.464;2023-07-20T06:54:56;1.80;;;1.70;;
22097;SDS011;11215;51.938;8.464;2023-07-20T06:57:25;4.50;;;2.17;;
22097;SDS011;11215;51.938;8.464;2023-07-20T07:00:08;1.77;;;1.40;;
22097;SDS011;11215;51.938;8.464;2023-07-20T07:02:35;1.53;;;1.43;;
22097;SDS011;11215;51.938;8.464;2023-07-20T07:05:06;2.13;;;1.50;;
22097;SDS011;11215;51.938;8.464;2023-07-20T07:07:32;1.33;;;1.23;;
22097;SDS011;11215;51.938;8.464;2023-07-20T07:09:58;1.57;;;1.20;;
22097;SDS011;11215;51.938;8.464;2023-07-20T07:12:25;3.13;;;1.20;;
22097;SDS011;11215;51.938;8.464;2023-07-20T07:14:50;2.07;;;1.27;;
22097;SDS011;11215;51.938;8.464;2023-07-20T07:17:16;1.57;;;1.47;;
22097;SDS011;11215;51.938;8.464;2023-07-20T07:19:41;1.70;;;1.60;;
22097;SDS011;11215;51.938;8.464;2023-07-20T07:22:07;2.27;;;1.40;;
22097;SDS011;11215;51.938;8.464;2023-07-20T07:24:33;1.60;;;1.20;;
22097;SDS011;11215;51.938;8.464;2023-07-20T07:27:04;4.20;;;1.70;;
22097;SDS011;11215;51.938;8.464;2023-07-20T07:29:30;1.50;;;1.07;;
22097;SDS011;11215;51.938;8.464;2023-07-20T07:31:59;1.10;;;1.00;;
22097;SDS011;11215;51.938;8.464;2023-07-20T07:34:27;1.13;;;0.90;;
22097;SDS011;11215;51.938;8.464;2023-07-20T07:36:53;1.63;;;1.00;;
22097;SDS011;11215;51.938;8.464;2023-07-20T07:39:22;0.97;;;0.97;;
22097;SDS011;11215;51.938;8.464;2023-07-20T07:41:49;1.93;;;1.17;;
22097;SDS011;11215;51.938;8.464;2023-07-20T07:44:17;2.27;;;1.20;;
22097;SDS011;11215;51.938;8.464;2023-07-20T07:46:43;0.80;;;0.80;;
22097;SDS011;11215;51.938;8.464;2023-07-20T07:49:15;0.70;;;0.70;;
22097;SDS011;11215;51.938;8.464;2023-07-20T07:51:47;1.27;;;1.00;;
22097;SDS011;11215;51.938;8.464;2023-07-20T07:54:18;2.13;;;1.00;;
22097;SDS011;11215;51.938;8.464;2023-07-20T07:56:49;1.20;;;1.07;;
22097;SDS011;11215;51.938;8.464;2023-07-20T07:59:20;0.97;;;0.80;;
22097;SDS011;11215;51.938;8.464;2023-07-20T08:01:46;1.47;;;0.70;;
22097;SDS011;11215;51.938;8.464;2023-07-20T08:04:14;0.80;;;0.70;;
22097;SDS011;11215;51.938;8.464;2023-07-20T08:06:45;0.63;;;0.63;;
22097;SDS011;11215;51.938;8.464;2023-07-20T08:09:11;1.33;;;0.80;;
22097;SDS011;11215;51.938;8.464;2023-07-20T08:11:38;0.90;;;0.70;;
22097;SDS011;11215;51.938;8.464;2023-07-20T08:14:04;1.17;;;0.87;;
22097;SDS011;11215;51.938;8.464;2023-07-20T08:16:30;1.23;;;0.70;;
22097;SDS011;11215;51.938;8.464;2023-07-20T08:18:55;0.90;;;0.80;;
22097;SDS011;11215;51.938;8.464;2023-07-20T08:21:21;0.83;;;0.83;;
22097;SDS011;11215;51.938;8.464;2023-07-20T08:23:47;0.90;;;0.70;;
22097;SDS011;11215;51.938;8.464;2023-07-20T08:26:15;1.00;;;0.80;;
22097;SDS011;11215;51.938;8.464;2023-07-20T08:28:42;0.87;;;0.70;;
22097;SDS011;11215;51.938;8.464;2023-07-20T08:31:09;0.77;;;0.63;;
22097;SDS011;11215;51.938;8.464;2023-07-20T08:33:35;0.80;;;0.80;;
22097;SDS011;11215;51.938;8.464;2023-07-20T08:36:01;0.80;;;0.73;;
22097;SDS011;11215;51.938;8.464;2023-07-20T08:38:35;1.23;;;0.70;;
22097;SDS011;11215;51.938;8.464;2023-07-20T08:41:01;0.70;;;0.70;;
22097;SDS011;11215;51.938;8.464;2023-07-20T08:43:30;0.90;;;0.73;;
22097;SDS011;11215;51.938;8.464;2023-07-20T08:45:58;0.60;;;0.60;;
22097;SDS011;11215;51.938;8.464;2023-07-20T08:48:25;0.83;;;0.80;;
22097;SDS011;11215;51.938;8.464;2023-07-20T08:50:56;1.47;;;0.60;;
22097;SDS011;11215;51.938;8.464;2023-07-20T08:53:25;0.83;;;0.60;;
22097;SDS011;11215;51.938;8.464;2023-07-20T08:55:52;1.47;;;0.67;;
22097;SDS011;11215;51.938;8.464;2023-07-20T08:58:27;1.00;;;0.70;;
22097;SDS011;11215;51.938;8.464;2023-07-20T09:01:03;0.60;;;0.60;;
22097;SDS011;11215;51.938;8.464;2023-07-20T09:03:29;0.73;;;0.60;;
22097;SDS011;11215;51.938;8.464;2023-07-20T09:05:54;0.93;;;0.90;;
22097;SDS011;11215;51.938;8.464;2023-07-20T09:08:20;1.30;;;0.80;;
22097;SDS011;11215;51.938;8.464;2023-07-20T09:10:49;0.70;;;0.70;;
22097;SDS011;11215;51.938;8.464;2023-07-20T09:13:17;2.50;;;0.70;;
22097;SDS011;11215;51.938;8.464;2023-07-20T09:15:46;0.87;;;0.73;;
22097;SDS011;11215;51.938;8.464;2023-07-20T09:18:12;1.57;;;0.80;;
22097;SDS011;11215;51.938;8.464;2023-07-20T09:20:58;2.70;;;0.70;;
22097;SDS011;11215;51.938;8.464;2023-07-20T09:23:37;1.00;;;0.70;;
22097;SDS011;11215;51.938;8.464;2023-07-20T09:26:13;0.97;;;0.80;;
22097;SDS011;11215;51.938;8.464;2023-07-20T09:28:47;0.87;;;0.87;;
22097;SDS011;11215;51.938;8.464;2023-07-20T09:31:24;1.77;;;0.80;;
22097;SDS011;11215;51.938;8.464;2023-07-20T09:33:52;0.80;;;0.80;;
22097;SDS011;11215;51.938;8.464;2023-07-20T09:36:26;0.60;;;0.60;;
22097;SDS011;11215;51.938;8.464;2023-07-20T09:38:53;0.70;;;0.70;;
22097;SDS011;11215;51.938;8.464;2023-07-20T09:41:51;0.90;;;0.67;;
22097;SDS011;11215;51.938;8.464;2023-07-20T09:44:17;1.13;;;0.70;;
22097;SDS011;11215;51.938;8.464;2023-07-20T09:46:48;0.70;;;0.67;;
22097;SDS011;11215;51.938;8.464;2023-07-20T09:49:14;0.67;;;0.60;;
22097;SDS011;11215;51.938;8.464;2023-07-20T09:51:48;3.23;;;0.80;;
22097;SDS011;11215;51.938;8.464;2023-07-20T09:54:14;0.80;;;0.80;;
22097;SDS011;11215;51.938;8.464;2023-07-20T09:56:40;0.83;;;0.80;;
22097;SDS011;11215;51.938;8.464;2023-07-20T09:59:07;0.87;;;0.83;;
22097;SDS011;11215;51.938;8.464;2023-07-20T10:01:38;0.87;;;0.80;;
22097;SDS011;11215;51.938;8.464;2023-07-20T10:04:23;0.57;;;0.57;;
22097;SDS011;11215;51.938;8.464;2023-07-20T10:06:50;0.67;;;0.67;;
22097;SDS011;11215;51.938;8.464;2023-07-20T10:09:19;0.97;;;0.70;;
22097;SDS011;11215;51.938;8.464;2023-07-20T10:11:52;0.60;;;0.60;;
22097;SDS011;11215;51.938;8.464;2023-07-20T10:14:25;1.27;;;0.70;;
22097;SDS011;11215;51.938;8.464;2023-07-20T10:16:58;0.53;;;0.53;;
22097;SDS011;11215;51.938;8.464;2023-07-20T10:19:34;1.73;;;0.73;;
22097;SDS011;11215;51.938;8.464;2023-07-20T10:22:25;0.90;;;0.90;;
22097;SDS011;11215;51.938;8.464;2023-07-20T10:24:51;1.63;;;1.07;;
22097;SDS011;11215;51.938;8.464;2023-07-20T10:27:23;0.73;;;0.73;;
22097;SDS011;11215;51.938;8.464;2023-07-20T10:29:50;2.53;;;0.80;;
22097;SDS011;11215;51.938;8.464;2023-07-20T10:32:18;1.13;;;0.70;;
22097;SDS011;11215;51.938;8.464;2023-07-20T10:34:54;1.10;;;0.67;;
22097;SDS011;11215;51.938;8.464;2023-07-20T10:40:24;0.87;;;0.87;;
22097;SDS011;11215;51.938;8.464;2023-07-20T10:42:59;0.90;;;0.90;;
22097;SDS011;11215;51.938;8.464;2023-07-20T10:45:35;1.77;;;1.00;;
22097;SDS011;11215;51.938;8.464;2023-07-20T10:48:06;1.00;;;1.00;;
22097;SDS011;11215;51.938;8.464;2023-07-20T10:50:41;1.47;;;1.10;;
22097;SDS011;11215;51.938;8.464;2023-07-20T10:53:11;1.90;;;1.20;;
22097;SDS011;11215;51.938;8.464;2023-07-20T10:55:39;1.40;;;1.30;;
22097;SDS011;11215;51.938;8.464;2023-07-20T10:58:09;1.20;;;1.10;;
22097;SDS011;11215;51.938;8.464;2023-07-20T11:00:57;1.53;;;1.20;;
22097;SDS011;11215;51.938;8.464;2023-07-20T11:03:30;1.40;;;1.30;;
22097;SDS011;11215;51.938;8.464;2023-07-20T11:05:58;1.27;;;1.17;;
22097;SDS011;11215;51.938;8.464;2023-07-20T11:08:40;1.40;;;1.40;;
22097;SDS011;11215;51.938;8.464;2023-07-20T11:11:27;1.97;;;1.83;;
22097;SDS011;11215;51.938;8.464;2023-07-20T11:14:00;1.60;;;1.50;;
22097;SDS011;11215;51.938;8.464;2023-07-20T11:19:04;1.70;;;1.60;;
22097;SDS011;11215;51.938;8.464;2023-07-20T11:21:34;2.40;;;2.10;;
22097;SDS011;11215;51.938;8.464;2023-07-20T11:24:05;1.97;;;1.80;;
22097;SDS011;11215;51.938;8.464;2023-07-20T11:26:44;1.90;;;1.80;;
22097;SDS011;11215;51.938;8.464;2023-07-20T11:29:15;1.90;;;1.80;;
22097;SDS011;11215;51.938;8.464;2023-07-20T11:31:45;1.90;;;1.80;;
22097;SDS011;11215;51.938;8.464;2023-07-20T11:34:15;2.17;;;1.87;;
22097;SDS011;11215;51.938;8.464;2023-07-20T11:36:45;2.10;;;1.77;;
22097;SDS011;11215;51.938;8.464;2023-07-20T11:39:16;1.90;;;1.60;;
22097;SDS011;11215;51.938;8.464;2023-07-20T11:41:47;2.53;;;1.70;;
22097;SDS011;11215;51.938;8.464;2023-07-20T11:44:15;2.10;;;1.60;;
22097;SDS011;11215;51.938;8.464;2023-07-20T11:46:45;1.83;;;1.73;;
22097;SDS011;11215;51.938;8.464;2023-07-20T11:49:11;2.90;;;2.10;;
22097;SDS011;11215;51.938;8.464;2023-07-20T11:51:40;2.60;;;1.90;;
22097;SDS011;11215;51.938;8.464;2023-07-20T11:54:07;3.23;;;2.30;;
22097;SDS011;11215;51.938;8.464;2023-07-20T11:56:33;2.13;;;2.00;;
22097;SDS011;11215;51.938;8.464;2023-07-20T11:59:02;3.00;;;2.10;;
22097;SDS011;11215;51.938;8.464;2023-07-20T12:01:28;3.10;;;2.00;;
22097;SDS011;11215;51.938;8.464;2023-07-20T12:03:57;2.90;;;2.40;;
22097;SDS011;11215;51.938;8.464;2023-07-20T12:06:27;2.77;;;1.97;;
22097;SDS011;11215;51.938;8.464;2023-07-20T12:08:59;2.00;;;1.90;;
22097;SDS011;11215;51.938;8.464;2023-07-20T12:11:34;2.40;;;2.20;;
22097;SDS011;11215;51.938;8.464;2023-07-20T12:14:07;1.80;;;1.70;;
22097;SDS011;11215;51.938;8.464;2023-07-20T12:16:34;1.70;;;1.60;;
22097;SDS011;11215;51.938;8.464;2023-07-20T12:19:07;1.97;;;1.87;;
22097;SDS011;11215;51.938;8.464;2023-07-20T12:21:39;2.40;;;1.70;;
22097;SDS011;11215;51.938;8.464;2023-07-20T12:24:07;2.80;;;1.83;;
22097;SDS011;11215;51.938;8.464;2023-07-20T12:26:36;1.70;;;1.60;;
22097;SDS011;11215;51.938;8.464;2023-07-20T12:29:02;1.60;;;1.50;;
22097;SDS011;11215;51.938;8.464;2023-07-20T12:31:39;1.47;;;1.37;;
22097;SDS011;11215;51.938;8.464;2023-07-20T12:34:05;1.60;;;1.50;;
22097;SDS011;11215;51.938;8.464;2023-07-20T12:36:32;1.87;;;1.40;;
22097;SDS011;11215;51.938;8.464;2023-07-20T12:38:58;1.03;;;1.03;;
22097;SDS011;11215;51.938;8.464;2023-07-20T12:41:24;1.37;;;1.00;;
22097;SDS011;11215;51.938;8.464;2023-07-20T12:43:49;1.83;;;1.10;;
22097;SDS011;11215;51.938;8.464;2023-07-20T12:46:15;1.37;;;1.27;;
22097;SDS011;11215;51.938;8.464;2023-07-20T12:48:41;2.60;;;1.10;;
22097;SDS011;11215;51.938;8.464;2023-07-20T12:51:10;2.13;;;1.07;;
22097;SDS011;11215;51.938;8.464;2023-07-20T12:53:36;0.90;;;0.90;;
22097;SDS011;11215;51.938;8.464;2023-07-20T12:56:02;1.07;;;0.97;;
22097;SDS011;11215;51.938;8.464;2023-07-20T12:58:28;1.00;;;0.90;;
22097;SDS011;11215;51.938;8.464;2023-07-20T13:00:54;0.80;;;0.80;;
22097;SDS011;11215;51.938;8.464;2023-07-20T13:03:19;0.80;;;0.80;;
22097;SDS011;11215;51.938;8.464;2023-07-20T13:05:46;1.53;;;0.90;;
22097;SDS011;11215;51.938;8.464;2023-07-20T13:08:12;1.77;;;1.20;;
22097;SDS011;11215;51.938;8.464;2023-07-20T13:10:38;0.73;;;0.73;;
22097;SDS011;11215;51.938;8.464;2023-07-20T13:13:04;1.43;;;1.07;;
22097;SDS011;11215;51.938;8.464;2023-07-20T13:15:40;1.07;;;1.00;;
22097;SDS011;11215;51.938;8.464;2023-07-20T13:18:07;0.90;;;0.90;;
22097;SDS011;11215;51.938;8.464;2023-07-20T13:20:32;1.60;;;0.70;;
22097;SDS011;11215;51.938;8.464;2023-07-20T13:23:01;1.10;;;1.00;;
22097;SDS011;11215;51.938;8.464;2023-07-20T13:25:26;0.93;;;0.70;;
22097;SDS011;11215;51.938;8.464;2023-07-20T13:27:52;0.70;;;0.70;;
22097;SDS011;11215;51.938;8.464;2023-07-20T13:30:18;1.53;;;0.60;;
22097;SDS011;11215;51.938;8.464;2023-07-20T13:32:44;0.63;;;0.63;;
22097;SDS011;11215;51.938;8.464;2023-07-20T13:35:10;0.87;;;0.60;;
22097;SDS011;11215;51.938;8.464;2023-07-20T13:37:36;0.80;;;0.80;;
22097;SDS011;11215;51.938;8.464;2023-07-20T13:40:02;0.70;;;0.70;;
22097;SDS011;11215;51.938;8.464;2023-07-20T13:42:30;2.30;;;0.83;;
22097;SDS011;11215;51.938;8.464;2023-07-20T13:44:59;1.33;;;0.80;;
22097;SDS011;11215;51.938;8.464;2023-07-20T13:47:25;0.90;;;0.70;;
22097;SDS011;11215;51.938;8.464;2023-07-20T13:49:52;0.70;;;0.70;;
22097;SDS011;11215;51.938;8.464;2023-07-20T13:52:17;1.23;;;0.80;;
22097;SDS011;11215;51.938;8.464;2023-07-20T13:54:43;1.23;;;0.80;;
22097;SDS011;11215;51.938;8.464;2023-07-20T13:57:09;0.83;;;0.60;;
22097;SDS011;11215;51.938;8.464;2023-07-20T13:59:37;0.80;;;0.80;;
22097;SDS011;11215;51.938;8.464;2023-07-20T14:02:02;0.60;;;0.60;;
22097;SDS011;11215;51.938;8.464;2023-07-20T14:04:34;0.60;;;0.60;;
22097;SDS011;11215;51.938;8.464;2023-07-20T14:07:00;0.90;;;0.60;;
22097;SDS011;11215;51.938;8.464;2023-07-20T14:09:29;1.00;;;0.63;;
22097;SDS011;11215;51.938;8.464;2023-07-20T14:11:54;1.13;;;0.50;;
22097;SDS011;11215;51.938;8.464;2023-07-20T14:14:20;0.63;;;0.50;;
22097;SDS011;11215;51.938;8.464;2023-07-20T14:16:46;0.50;;;0.50;;
22097;SDS011;11215;51.938;8.464;2023-07-20T14:19:11;0.67;;;0.57;;
22097;SDS011;11215;51.938;8.464;2023-07-20T14:21:40;0.90;;;0.60;;
22097;SDS011;11215;51.938;8.464;2023-07-20T14:24:19;0.73;;;0.60;;
22097;SDS011;11215;51.938;8.464;2023-07-20T14:26:45;0.50;;;0.50;;
22097;SDS011;11215;51.938;8.464;2023-07-20T14:29:16;0.97;;;0.50;;
22097;SDS011;11215;51.938;8.464;2023-07-20T14:31:46;0.70;;;0.70;;
22097;SDS011;11215;51.938;8.464;2023-07-20T14:34:16;0.60;;;0.53;;
22097;SDS011;11215;51.938;8.464;2023-07-20T14:36:44;0.50;;;0.50;;
22097;SDS011;11215;51.938;8.464;2023-07-20T14:39:10;0.70;;;0.57;;
22097;SDS011;11215;51.938;8.464;2023-07-20T14:41:35;1.00;;;0.63;;
22097;SDS011;11215;51.938;8.464;2023-07-20T14:44:02;0.80;;;0.50;;
22097;SDS011;11215;51.938;8.464;2023-07-20T14:46:28;1.40;;;0.60;;
22097;SDS011;11215;51.938;8.464;2023-07-20T14:48:53;1.70;;;0.80;;
22097;SDS011;11215;51.938;8.464;2023-07-20T14:51:19;0.77;;;0.50;;
22097;SDS011;11215;51.938;8.464;2023-07-20T14:53:45;1.17;;;0.83;;
22097;SDS011;11215;51.938;8.464;2023-07-20T14:56:11;1.83;;;0.80;;
22097;SDS011;11215;51.938;8.464;2023-07-20T14:58:36;0.93;;;0.80;;
22097;SDS011;11215;51.938;8.464;2023-07-20T15:01:03;1.90;;;0.53;;
22097;SDS011;11215;51.938;8.464;2023-07-20T15:03:28;0.40;;;0.40;;